sensor_id;sensor_type;location;lat;lon;timestamp;temperature;humidity
7159;DHT22;3621;52.374;13.098;2022-08-19T00:01:19;26.50;95.40
7159;DHT22;3621;52.374;13.098;2022-08-19T00:03:46;26.50;95.40
7159;DHT22;3621;52.374;13.098;2022-08-19T00:06:14;26.50;95.50
7159;DHT22;3621;52.374;13.098;2022-08-19T00:08:41;26.50;95.50
7159;DHT22;3621;52.374;13.098;2022-08-19T00:11:09;26.50;95.60
7159;DHT22;3621;52.374;13.098;2022-08-19T00:13:37;26.50;95.70
7159;DHT22;3621;52.374;13.098;2022-08-19T00:16:04;26.40;95.90
7159;DHT22;3621;52.374;13.098;2022-08-19T00:18:32;26.40;96.20
7159;DHT22;3621;52.374;13.098;2022-08-19T00:20:59;26.30;96.30
7159;DHT22;3621;52.374;13.098;2022-08-19T00:23:26;26.40;96.40
7159;DHT22;3621;52.374;13.098;2022-08-19T00:25:54;26.30;96.50
7159;DHT22;3621;52.374;13.098;2022-08-19T00:28:21;26.30;96.50
7159;DHT22;3621;52.374;13.098;2022-08-19T00:30:49;26.20;96.60
7159;DHT22;3621;52.374;13.098;2022-08-19T00:33:17;26.20;96.70
7159;DHT22;3621;52.374;13.098;2022-08-19T00:35:44;26.20;96.80
7159;DHT22;3621;52.374;13.098;2022-08-19T00:38:11;26.10;96.90
7159;DHT22;3621;52.374;13.098;2022-08-19T00:40:38;26.10;97.00
7159;DHT22;3621;52.374;13.098;2022-08-19T00:43:08;26.10;97.30
7159;DHT22;3621;52.374;13.098;2022-08-19T00:45:35;26.10;97.20
7159;DHT22;3621;52.374;13.098;2022-08-19T00:48:04;26.10;97.40
7159;DHT22;3621;52.374;13.098;2022-08-19T00:50:31;26.00;97.50
7159;DHT22;3621;52.374;13.098;2022-08-19T00:52:59;26.00;97.60
7159;DHT22;3621;52.374;13.098;2022-08-19T00:55:31;26.00;97.80
7159;DHT22;3621;52.374;13.098;2022-08-19T00:58:02;25.90;98.00
7159;DHT22;3621;52.374;13.098;2022-08-19T01:00:31;25.80;98.10
7159;DHT22;3621;52.374;13.098;2022-08-19T01:02:59;25.80;98.20
7159;DHT22;3621;52.374;13.098;2022-08-19T01:05:28;25.80;98.30
7159;DHT22;3621;52.374;13.098;2022-08-19T01:07:56;25.80;98.50
7159;DHT22;3621;52.374;13.098;2022-08-19T01:10:37;25.80;98.60
7159;DHT22;3621;52.374;13.098;2022-08-19T01:13:05;25.80;98.70
7159;DHT22;3621;52.374;13.098;2022-08-19T01:15:41;25.80;98.70
7159;DHT22;3621;52.374;13.098;2022-08-19T01:18:11;25.80;99.10
7159;DHT22;3621;52.374;13.098;2022-08-19T01:20:41;25.70;99.30
7159;DHT22;3621;52.374;13.098;2022-08-19T01:23:10;25.70;99.50
7159;DHT22;3621;52.374;13.098;2022-08-19T01:25:41;25.70;99.60
7159;DHT22;3621;52.374;13.098;2022-08-19T01:28:15;25.70;99.70
7159;DHT22;3621;52.374;13.098;2022-08-19T01:30:44;25.70;99.90
7159;DHT22;3621;52.374;13.098;2022-08-19T01:33:11;25.60;99.90
7159;DHT22;3621;52.374;13.098;2022-08-19T01:35:39;25.70;99.90
7159;DHT22;3621;52.374;13.098;2022-08-19T01:38:10;25.60;99.90
7159;DHT22;3621;52.374;13.098;2022-08-19T01:40:38;25.60;99.90
7159;DHT22;3621;52.374;13.098;2022-08-19T01:43:07;25.70;99.90
7159;DHT22;3621;52.374;13.098;2022-08-19T01:45:35;25.60;99.90
7159;DHT22;3621;52.374;13.098;2022-08-19T01:48:03;25.60;99.90
7159;DHT22;3621;52.374;13.098;2022-08-19T01:50:31;25.50;99.90
7159;DHT22;3621;52.374;13.098;2022-08-19T01:52:59;25.50;99.90
7159;DHT22;3621;52.374;13.098;2022-08-19T01:55:28;25.50;99.90
7159;DHT22;3621;52.374;13.098;2022-08-19T01:57:58;25.50;99.90
7159;DHT22;3621;52.374;13.098;2022-08-19T02:00:28;25.50;99.90
7159;DHT22;3621;52.374;13.098;2022-08-19T02:02:56;25.50;99.90
7159;DHT22;3621;52.374;13.098;2022-08-19T02:05:23;25.40;99.90
7159;DHT22;3621;52.374;13.098;2022-08-19T02:07:50;25.30;99.90
7159;DHT22;3621;52.374;13.098;2022-08-19T02:10:20;25.30;99.90
7159;DHT22;3621;52.374;13.098;2022-08-19T02:12:49;25.20;99.90
7159;DHT22;3621;52.374;13.098;2022-08-19T02:15:16;25.10;99.90
7159;DHT22;3621;52.374;13.098;2022-08-19T02:17:44;25.00;99.90
7159;DHT22;3621;52.374;13.098;2022-08-19T02:20:12;24.90;99.90
7159;DHT22;3621;52.374;13.098;2022-08-19T02:22:40;24.90;99.90
7159;DHT22;3621;52.374;13.098;2022-08-19T02:25:08;24.80;99.90
7159;DHT22;3621;52.374;13.098;2022-08-19T02:27:35;24.70;99.90
7159;DHT22;3621;52.374;13.098;2022-08-19T02:30:04;24.70;99.90
7159;DHT22;3621;52.374;13.098;2022-08-19T02:32:31;24.60;99.90
7159;DHT22;3621;52.374;13.098;2022-08-19T02:34:58;24.60;99.90
7159;DHT22;3621;52.374;13.098;2022-08-19T02:37:25;24.60;99.90
7159;DHT22;3621;52.374;13.098;2022-08-19T02:40:21;24.60;99.90
7159;DHT22;3621;52.374;13.098;2022-08-19T02:42:48;24.50;99.90
7159;DHT22;3621;52.374;13.098;2022-08-19T02:45:17;24.50;99.90
7159;DHT22;3621;52.374;13.098;2022-08-19T02:47:44;24.40;99.90
7159;DHT22;3621;52.374;13.098;2022-08-19T02:50:11;24.40;99.90
7159;DHT22;3621;52.374;13.098;2022-08-19T02:52:38;24.40;99.90
7159;DHT22;3621;52.374;13.098;2022-08-19T02:55:06;24.30;99.90
7159;DHT22;3621;52.374;13.098;2022-08-19T02:57:33;24.30;99.90
7159;DHT22;3621;52.374;13.098;2022-08-19T03:00:03;24.30;99.90
7159;DHT22;3621;52.374;13.098;2022-08-19T03:02:32;24.30;99.90
7159;DHT22;3621;52.374;13.098;2022-08-19T03:04:59;24.30;99.90
7159;DHT22;3621;52.374;13.098;2022-08-19T03:07:27;24.40;99.90
7159;DHT22;3621;52.374;13.098;2022-08-19T03:09:54;24.40;99.90
7159;DHT22;3621;52.374;13.098;2022-08-19T03:12:20;24.40;99.90
7159;DHT22;3621;52.374;13.098;2022-08-19T03:14:47;24.40;99.90
7159;DHT22;3621;52.374;13.098;2022-08-19T03:17:14;24.50;99.90
7159;DHT22;3621;52.374;13.098;2022-08-19T03:19:42;24.40;99.90
7159;DHT22;3621;52.374;13.098;2022-08-19T03:22:10;24.40;99.90
7159;DHT22;3621;52.374;13.098;2022-08-19T03:24:38;24.40;99.90
7159;DHT22;3621;52.374;13.098;2022-08-19T03:27:05;24.40;99.90
7159;DHT22;3621;52.374;13.098;2022-08-19T03:29:32;24.40;99.90
7159;DHT22;3621;52.374;13.098;2022-08-19T03:32:00;24.30;99.90
7159;DHT22;3621;52.374;13.098;2022-08-19T03:34:30;24.30;99.90
7159;DHT22;3621;52.374;13.098;2022-08-19T03:37:02;24.30;99.90
7159;DHT22;3621;52.374;13.098;2022-08-19T03:39:30;24.30;99.90
7159;DHT22;3621;52.374;13.098;2022-08-19T03:41:57;24.30;99.90
7159;DHT22;3621;52.374;13.098;2022-08-19T03:44:25;24.30;99.90
7159;DHT22;3621;52.374;13.098;2022-08-19T03:46:54;24.30;99.90
7159;DHT22;3621;52.374;13.098;2022-08-19T03:49:23;24.30;99.90
7159;DHT22;3621;52.374;13.098;2022-08-19T03:51:51;24.30;99.90
7159;DHT22;3621;52.374;13.098;2022-08-19T03:54:21;24.30;99.90
7159;DHT22;3621;52.374;13.098;2022-08-19T03:56:50;24.30;99.90
7159;DHT22;3621;52.374;13.098;2022-08-19T03:59:20;24.20;99.90
7159;DHT22;3621;52.374;13.098;2022-08-19T04:01:51;24.20;99.90
7159;DHT22;3621;52.374;13.098;2022-08-19T04:04:18;24.20;99.90
7159;DHT22;3621;52.374;13.098;2022-08-19T04:06:45;24.20;99.90
7159;DHT22;3621;52.374;13.098;2022-08-19T04:09:13;24.20;99.90
7159;DHT22;3621;52.374;13.098;2022-08-19T04:11:43;24.20;99.90
7159;DHT22;3621;52.374;13.098;2022-08-19T04:14:12;24.20;99.90
7159;DHT22;3621;52.374;13.098;2022-08-19T04:16:39;24.30;99.90
7159;DHT22;3621;52.374;13.098;2022-08-19T04:19:06;24.30;99.90
7159;DHT22;3621;52.374;13.098;2022-08-19T04:21:34;24.20;99.90
7159;DHT22;3621;52.374;13.098;2022-08-19T04:24:02;24.20;99.90
7159;DHT22;3621;52.374;13.098;2022-08-19T04:26:33;24.20;99.90
7159;DHT22;3621;52.374;13.098;2022-08-19T04:29:05;24.20;99.90
7159;DHT22;3621;52.374;13.098;2022-08-19T04:31:32;24.20;99.90
7159;DHT22;3621;52.374;13.098;2022-08-19T04:34:02;24.10;99.90
7159;DHT22;3621;52.374;13.098;2022-08-19T04:36:32;24.10;99.90
7159;DHT22;3621;52.374;13.098;2022-08-19T04:39:02;24.10;99.90
7159;DHT22;3621;52.374;13.098;2022-08-19T04:41:29;24.10;99.90
7159;DHT22;3621;52.374;13.098;2022-08-19T04:44:15;24.10;99.90
7159;DHT22;3621;52.374;13.098;2022-08-19T04:46:44;24.10;99.90
7159;DHT22;3621;52.374;13.098;2022-08-19T04:49:11;24.10;99.90
7159;DHT22;3621;52.374;13.098;2022-08-19T04:51:40;24.10;99.90
7159;DHT22;3621;52.374;13.098;2022-08-19T04:54:07;24.10;99.90
7159;DHT22;3621;52.374;13.098;2022-08-19T04:56:35;24.10;99.90
7159;DHT22;3621;52.374;13.098;2022-08-19T04:59:02;24.10;99.90
7159;DHT22;3621;52.374;13.098;2022-08-19T05:01:33;24.10;99.90
7159;DHT22;3621;52.374;13.098;2022-08-19T05:04:02;24.10;99.90
7159;DHT22;3621;52.374;13.098;2022-08-19T05:06:31;24.10;99.90
7159;DHT22;3621;52.374;13.098;2022-08-19T05:08:59;24.10;99.90
7159;DHT22;3621;52.374;13.098;2022-08-19T05:11:28;24.00;99.90
7159;DHT22;3621;52.374;13.098;2022-08-19T05:13:56;24.00;99.90
7159;DHT22;3621;52.374;13.098;2022-08-19T05:16:24;24.10;99.90
7159;DHT22;3621;52.374;13.098;2022-08-19T05:18:54;24.10;99.90
7159;DHT22;3621;52.374;13.098;2022-08-19T05:21:39;24.10;99.90
7159;DHT22;3621;52.374;13.098;2022-08-19T05:24:24;24.10;99.90
7159;DHT22;3621;52.374;13.098;2022-08-19T05:26:53;24.20;99.90
7159;DHT22;3621;52.374;13.098;2022-08-19T05:29:23;24.20;99.90
7159;DHT22;3621;52.374;13.098;2022-08-19T05:31:52;24.20;99.90
7159;DHT22;3621;52.374;13.098;2022-08-19T05:34:23;24.20;99.90
7159;DHT22;3621;52.374;13.098;2022-08-19T05:36:52;24.20;99.90
7159;DHT22;3621;52.374;13.098;2022-08-19T05:39:21;24.20;99.90
7159;DHT22;3621;52.374;13.098;2022-08-19T05:41:50;24.20;99.90
7159;DHT22;3621;52.374;13.098;2022-08-19T05:44:18;24.20;99.90
7159;DHT22;3621;52.374;13.098;2022-08-19T05:46:47;24.20;99.90
7159;DHT22;3621;52.374;13.098;2022-08-19T05:49:15;24.20;99.90
7159;DHT22;3621;52.374;13.098;2022-08-19T05:51:43;24.20;99.90
7159;DHT22;3621;52.374;13.098;2022-08-19T05:54:10;24.20;99.90
7159;DHT22;3621;52.374;13.098;2022-08-19T05:56:39;24.30;99.90
7159;DHT22;3621;52.374;13.098;2022-08-19T05:59:08;24.30;99.90
7159;DHT22;3621;52.374;13.098;2022-08-19T06:01:38;24.30;99.90
7159;DHT22;3621;52.374;13.098;2022-08-19T06:04:05;24.40;99.90
7159;DHT22;3621;52.374;13.098;2022-08-19T06:06:33;24.40;99.90
7159;DHT22;3621;52.374;13.098;2022-08-19T06:09:02;24.50;99.90
7159;DHT22;3621;52.374;13.098;2022-08-19T06:11:33;24.50;99.90
7159;DHT22;3621;52.374;13.098;2022-08-19T06:14:02;24.50;99.90
7159;DHT22;3621;52.374;13.098;2022-08-19T06:16:30;24.50;99.90
7159;DHT22;3621;52.374;13.098;2022-08-19T06:19:03;24.50;99.90
7159;DHT22;3621;52.374;13.098;2022-08-19T06:21:32;24.60;99.90
7159;DHT22;3621;52.374;13.098;2022-08-19T06:23:59;24.60;99.90
7159;DHT22;3621;52.374;13.098;2022-08-19T06:26:28;24.70;99.90
7159;DHT22;3621;52.374;13.098;2022-08-19T06:28:55;24.70;99.90
7159;DHT22;3621;52.374;13.098;2022-08-19T06:31:28;24.70;99.90
7159;DHT22;3621;52.374;13.098;2022-08-19T06:33:56;24.80;99.90
7159;DHT22;3621;52.374;13.098;2022-08-19T06:36:26;24.80;99.90
7159;DHT22;3621;52.374;13.098;2022-08-19T06:38:57;24.90;99.90
7159;DHT22;3621;52.374;13.098;2022-08-19T06:41:25;24.90;99.90
7159;DHT22;3621;52.374;13.098;2022-08-19T06:43:54;24.90;99.90
7159;DHT22;3621;52.374;13.098;2022-08-19T06:46:22;24.90;99.90
7159;DHT22;3621;52.374;13.098;2022-08-19T06:48:49;25.00;99.90
7159;DHT22;3621;52.374;13.098;2022-08-19T06:51:18;25.00;99.90
7159;DHT22;3621;52.374;13.098;2022-08-19T06:53:46;25.00;99.90
7159;DHT22;3621;52.374;13.098;2022-08-19T06:56:15;25.10;99.90
7159;DHT22;3621;52.374;13.098;2022-08-19T06:58:42;25.10;99.90
7159;DHT22;3621;52.374;13.098;2022-08-19T07:01:11;25.20;99.90
7159;DHT22;3621;52.374;13.098;2022-08-19T07:03:38;25.30;99.90
7159;DHT22;3621;52.374;13.098;2022-08-19T07:06:07;25.50;99.90
7159;DHT22;3621;52.374;13.098;2022-08-19T07:08:37;25.60;99.90
7159;DHT22;3621;52.374;13.098;2022-08-19T07:11:07;25.60;99.90
7159;DHT22;3621;52.374;13.098;2022-08-19T07:13:35;25.70;99.90
7159;DHT22;3621;52.374;13.098;2022-08-19T07:16:04;25.80;99.90
7159;DHT22;3621;52.374;13.098;2022-08-19T07:18:33;25.80;99.90
7159;DHT22;3621;52.374;13.098;2022-08-19T07:21:04;25.90;99.90
7159;DHT22;3621;52.374;13.098;2022-08-19T07:23:31;25.90;99.90
7159;DHT22;3621;52.374;13.098;2022-08-19T07:26:05;25.90;99.90
7159;DHT22;3621;52.374;13.098;2022-08-19T07:28:32;26.00;99.90
7159;DHT22;3621;52.374;13.098;2022-08-19T07:30:59;25.90;99.90
7159;DHT22;3621;52.374;13.098;2022-08-19T07:33:27;25.90;99.90
7159;DHT22;3621;52.374;13.098;2022-08-19T07:35:59;25.80;99.90
7159;DHT22;3621;52.374;13.098;2022-08-19T07:38:26;25.80;99.90
7159;DHT22;3621;52.374;13.098;2022-08-19T07:40:53;25.70;99.90
7159;DHT22;3621;52.374;13.098;2022-08-19T07:43:20;25.70;99.90
7159;DHT22;3621;52.374;13.098;2022-08-19T07:45:50;25.60;99.90
7159;DHT22;3621;52.374;13.098;2022-08-19T07:48:18;25.60;99.90
7159;DHT22;3621;52.374;13.098;2022-08-19T07:50:46;25.60;99.90
7159;DHT22;3621;52.374;13.098;2022-08-19T07:53:15;25.60;99.90
7159;DHT22;3621;52.374;13.098;2022-08-19T07:55:42;25.60;99.90
7159;DHT22;3621;52.374;13.098;2022-08-19T07:58:10;25.60;99.90
7159;DHT22;3621;52.374;13.098;2022-08-19T08:00:38;25.60;99.90
7159;DHT22;3621;52.374;13.098;2022-08-19T08:03:05;25.60;99.90
7159;DHT22;3621;52.374;13.098;2022-08-19T08:05:34;25.60;99.90
7159;DHT22;3621;52.374;13.098;2022-08-19T08:08:20;25.60;99.90
7159;DHT22;3621;52.374;13.098;2022-08-19T08:11:05;25.60;99.90
7159;DHT22;3621;52.374;13.098;2022-08-19T08:13:31;25.60;99.90
7159;DHT22;3621;52.374;13.098;2022-08-19T08:16:01;25.60;99.90
7159;DHT22;3621;52.374;13.098;2022-08-19T08:18:28;25.60;99.90
7159;DHT22;3621;52.374;13.098;2022-08-19T08:20:56;25.60;99.90
7159;DHT22;3621;52.374;13.098;2022-08-19T08:23:25;25.60;99.90
7159;DHT22;3621;52.374;13.098;2022-08-19T08:25:54;25.70;99.90
7159;DHT22;3621;52.374;13.098;2022-08-19T08:28:22;25.70;99.90
7159;DHT22;3621;52.374;13.098;2022-08-19T08:30:50;25.70;99.90
7159;DHT22;3621;52.374;13.098;2022-08-19T08:33:18;25.60;99.90
7159;DHT22;3621;52.374;13.098;2022-08-19T08:35:45;25.60;99.90
7159;DHT22;3621;52.374;13.098;2022-08-19T08:38:13;25.60;99.90
7159;DHT22;3621;52.374;13.098;2022-08-19T08:40:46;25.60;99.90
7159;DHT22;3621;52.374;13.098;2022-08-19T08:43:22;25.60;99.90
7159;DHT22;3621;52.374;13.098;2022-08-19T08:45:56;25.60;99.90
7159;DHT22;3621;52.374;13.098;2022-08-19T08:48:32;25.60;99.90
7159;DHT22;3621;52.374;13.098;2022-08-19T08:51:05;25.60;99.90
7159;DHT22;3621;52.374;13.098;2022-08-19T08:53:32;25.60;99.90
7159;DHT22;3621;52.374;13.098;2022-08-19T08:56:04;25.60;99.90
7159;DHT22;3621;52.374;13.098;2022-08-19T08:58:42;25.60;99.90
7159;DHT22;3621;52.374;13.098;2022-08-19T09:01:12;25.60;99.90
7159;DHT22;3621;52.374;13.098;2022-08-19T09:03:41;25.60;99.90
7159;DHT22;3621;52.374;13.098;2022-08-19T09:06:14;25.60;99.90
7159;DHT22;3621;52.374;13.098;2022-08-19T09:08:49;25.60;99.90
7159;DHT22;3621;52.374;13.098;2022-08-19T09:11:29;25.70;99.90
7159;DHT22;3621;52.374;13.098;2022-08-19T09:14:08;25.70;99.90
7159;DHT22;3621;52.374;13.098;2022-08-19T09:16:36;25.80;99.90
7159;DHT22;3621;52.374;13.098;2022-08-19T09:19:08;25.80;99.90
7159;DHT22;3621;52.374;13.098;2022-08-19T09:21:36;25.80;99.90
7159;DHT22;3621;52.374;13.098;2022-08-19T09:24:04;25.80;99.90
7159;DHT22;3621;52.374;13.098;2022-08-19T09:26:33;25.70;99.90
7159;DHT22;3621;52.374;13.098;2022-08-19T09:29:01;25.70;99.90
7159;DHT22;3621;52.374;13.098;2022-08-19T09:31:31;25.70;99.90
7159;DHT22;3621;52.374;13.098;2022-08-19T09:33:59;25.60;99.90
7159;DHT22;3621;52.374;13.098;2022-08-19T09:36:27;25.60;99.90
7159;DHT22;3621;52.374;13.098;2022-08-19T09:38:58;25.60;99.90
7159;DHT22;3621;52.374;13.098;2022-08-19T09:41:25;25.50;99.90
7159;DHT22;3621;52.374;13.098;2022-08-19T09:43:55;25.50;99.90
7159;DHT22;3621;52.374;13.098;2022-08-19T09:46:23;25.50;99.90
7159;DHT22;3621;52.374;13.098;2022-08-19T09:48:51;25.40;99.90
7159;DHT22;3621;52.374;13.098;2022-08-19T09:51:20;25.40;99.90
7159;DHT22;3621;52.374;13.098;2022-08-19T09:53:47;25.30;99.90
7159;DHT22;3621;52.374;13.098;2022-08-19T09:56:16;25.30;99.90
7159;DHT22;3621;52.374;13.098;2022-08-19T09:58:44;25.30;99.90
7159;DHT22;3621;52.374;13.098;2022-08-19T10:01:17;25.30;99.90
7159;DHT22;3621;52.374;13.098;2022-08-19T10:03:47;25.20;99.90
7159;DHT22;3621;52.374;13.098;2022-08-19T10:06:15;25.20;99.90
7159;DHT22;3621;52.374;13.098;2022-08-19T10:08:43;25.20;99.90
7159;DHT22;3621;52.374;13.098;2022-08-19T10:11:10;25.10;99.90
7159;DHT22;3621;52.374;13.098;2022-08-19T10:13:38;25.10;99.90
7159;DHT22;3621;52.374;13.098;2022-08-19T10:16:07;25.10;99.90
7159;DHT22;3621;52.374;13.098;2022-08-19T10:18:37;25.10;99.90
7159;DHT22;3621;52.374;13.098;2022-08-19T10:21:08;25.10;99.90
7159;DHT22;3621;52.374;13.098;2022-08-19T10:23:36;25.00;99.90
7159;DHT22;3621;52.374;13.098;2022-08-19T10:26:03;25.00;99.90
7159;DHT22;3621;52.374;13.098;2022-08-19T10:28:32;24.90;99.90
7159;DHT22;3621;52.374;13.098;2022-08-19T10:31:02;24.90;99.90
7159;DHT22;3621;52.374;13.098;2022-08-19T10:33:29;24.80;99.90
7159;DHT22;3621;52.374;13.098;2022-08-19T10:36:00;24.80;99.90
7159;DHT22;3621;52.374;13.098;2022-08-19T10:38:27;24.80;99.90
7159;DHT22;3621;52.374;13.098;2022-08-19T10:40:55;24.80;99.90
7159;DHT22;3621;52.374;13.098;2022-08-19T10:43:22;24.90;99.90
7159;DHT22;3621;52.374;13.098;2022-08-19T10:45:54;24.90;99.90
7159;DHT22;3621;52.374;13.098;2022-08-19T10:48:24;24.90;99.90
7159;DHT22;3621;52.374;13.098;2022-08-19T10:50:51;24.90;99.90
7159;DHT22;3621;52.374;13.098;2022-08-19T10:53:37;24.90;99.90
7159;DHT22;3621;52.374;13.098;2022-08-19T10:56:04;24.80;99.90
7159;DHT22;3621;52.374;13.098;2022-08-19T10:58:49;24.80;99.90
7159;DHT22;3621;52.374;13.098;2022-08-19T11:01:16;24.80;99.90
7159;DHT22;3621;52.374;13.098;2022-08-19T11:03:43;24.70;99.90
7159;DHT22;3621;52.374;13.098;2022-08-19T11:06:10;24.70;99.90
7159;DHT22;3621;52.374;13.098;2022-08-19T11:08:39;24.70;99.90
7159;DHT22;3621;52.374;13.098;2022-08-19T11:11:08;24.70;99.90
7159;DHT22;3621;52.374;13.098;2022-08-19T11:13:38;24.70;99.90
7159;DHT22;3621;52.374;13.098;2022-08-19T11:16:07;24.60;99.90
7159;DHT22;3621;52.374;13.098;2022-08-19T11:18:36;24.60;99.90
7159;DHT22;3621;52.374;13.098;2022-08-19T11:21:09;24.60;99.90
7159;DHT22;3621;52.374;13.098;2022-08-19T11:23:36;24.60;99.90
7159;DHT22;3621;52.374;13.098;2022-08-19T11:26:05;24.50;99.90
7159;DHT22;3621;52.374;13.098;2022-08-19T11:28:32;24.50;99.90
7159;DHT22;3621;52.374;13.098;2022-08-19T11:30:59;24.50;99.90
7159;DHT22;3621;52.374;13.098;2022-08-19T11:33:28;24.50;99.90
7159;DHT22;3621;52.374;13.098;2022-08-19T11:35:57;24.50;99.90
7159;DHT22;3621;52.374;13.098;2022-08-19T11:38:24;24.50;99.90
7159;DHT22;3621;52.374;13.098;2022-08-19T11:40:56;24.50;99.90
7159;DHT22;3621;52.374;13.098;2022-08-19T11:43:24;24.50;99.90
7159;DHT22;3621;52.374;13.098;2022-08-19T11:45:52;24.50;99.90
7159;DHT22;3621;52.374;13.098;2022-08-19T11:48:19;24.50;99.90
7159;DHT22;3621;52.374;13.098;2022-08-19T11:50:47;24.40;99.90
7159;DHT22;3621;52.374;13.098;2022-08-19T11:53:15;24.40;99.90
7159;DHT22;3621;52.374;13.098;2022-08-19T11:55:42;24.40;99.90
7159;DHT22;3621;52.374;13.098;2022-08-19T11:58:10;24.40;99.90
7159;DHT22;3621;52.374;13.098;2022-08-19T12:00:39;24.40;99.90
7159;DHT22;3621;52.374;13.098;2022-08-19T12:03:07;24.40;99.90
7159;DHT22;3621;52.374;13.098;2022-08-19T12:05:37;24.40;99.90
7159;DHT22;3621;52.374;13.098;2022-08-19T12:08:04;24.40;99.90
7159;DHT22;3621;52.374;13.098;2022-08-19T12:10:31;24.40;99.90
7159;DHT22;3621;52.374;13.098;2022-08-19T12:12:58;24.40;99.90
7159;DHT22;3621;52.374;13.098;2022-08-19T12:15:25;24.40;99.90
7159;DHT22;3621;52.374;13.098;2022-08-19T12:17:57;24.40;99.90
7159;DHT22;3621;52.374;13.098;2022-08-19T12:20:24;24.40;99.90
7159;DHT22;3621;52.374;13.098;2022-08-19T12:22:52;24.40;99.90
7159;DHT22;3621;52.374;13.098;2022-08-19T12:25:19;24.40;99.90
7159;DHT22;3621;52.374;13.098;2022-08-19T12:27:46;24.40;99.90
7159;DHT22;3621;52.374;13.098;2022-08-19T12:30:15;24.30;99.90
7159;DHT22;3621;52.374;13.098;2022-08-19T12:32:42;24.30;99.90
7159;DHT22;3621;52.374;13.098;2022-08-19T12:35:10;24.30;99.90
7159;DHT22;3621;52.374;13.098;2022-08-19T12:37:38;24.30;99.90
7159;DHT22;3621;52.374;13.098;2022-08-19T12:40:08;24.30;99.90
7159;DHT22;3621;52.374;13.098;2022-08-19T12:42:37;24.30;99.90
7159;DHT22;3621;52.374;13.098;2022-08-19T12:45:09;24.40;99.90
7159;DHT22;3621;52.374;13.098;2022-08-19T12:47:36;24.30;99.90
7159;DHT22;3621;52.374;13.098;2022-08-19T12:50:05;24.30;99.90
7159;DHT22;3621;52.374;13.098;2022-08-19T12:52:36;24.30;99.90
7159;DHT22;3621;52.374;13.098;2022-08-19T12:55:05;24.30;99.90
7159;DHT22;3621;52.374;13.098;2022-08-19T12:57:33;24.30;99.90
7159;DHT22;3621;52.374;13.098;2022-08-19T13:00:05;24.30;99.90
7159;DHT22;3621;52.374;13.098;2022-08-19T13:02:35;24.30;99.90
7159;DHT22;3621;52.374;13.098;2022-08-19T13:05:02;24.30;99.90
7159;DHT22;3621;52.374;13.098;2022-08-19T13:07:31;24.30;99.90
7159;DHT22;3621;52.374;13.098;2022-08-19T13:09:59;24.30;99.90
7159;DHT22;3621;52.374;13.098;2022-08-19T13:12:27;24.20;99.90
7159;DHT22;3621;52.374;13.098;2022-08-19T13:14:55;24.20;99.90
7159;DHT22;3621;52.374;13.098;2022-08-19T13:17:22;24.20;99.90
7159;DHT22;3621;52.374;13.098;2022-08-19T13:19:49;24.20;99.90
7159;DHT22;3621;52.374;13.098;2022-08-19T13:22:17;24.20;99.90
7159;DHT22;3621;52.374;13.098;2022-08-19T13:24:44;24.10;99.90
7159;DHT22;3621;52.374;13.098;2022-08-19T13:27:13;24.10;99.90
7159;DHT22;3621;52.374;13.098;2022-08-19T13:29:40;24.10;99.90
7159;DHT22;3621;52.374;13.098;2022-08-19T13:32:24;24.20;99.90
7159;DHT22;3621;52.374;13.098;2022-08-19T13:35:08;24.10;99.90
7159;DHT22;3621;52.374;13.098;2022-08-19T13:37:35;24.10;99.90
7159;DHT22;3621;52.374;13.098;2022-08-19T13:40:11;24.20;99.90
7159;DHT22;3621;52.374;13.098;2022-08-19T13:42:40;24.20;99.90
7159;DHT22;3621;52.374;13.098;2022-08-19T13:45:07;24.20;99.90
7159;DHT22;3621;52.374;13.098;2022-08-19T13:47:35;24.20;99.90
7159;DHT22;3621;52.374;13.098;2022-08-19T13:50:10;24.20;99.90
7159;DHT22;3621;52.374;13.098;2022-08-19T13:52:37;24.10;99.90
7159;DHT22;3621;52.374;13.098;2022-08-19T13:55:05;24.10;99.90
7159;DHT22;3621;52.374;13.098;2022-08-19T13:57:32;24.10;99.90
7159;DHT22;3621;52.374;13.098;2022-08-19T14:00:02;24.10;99.90
7159;DHT22;3621;52.374;13.098;2022-08-19T14:02:29;24.10;99.90
7159;DHT22;3621;52.374;13.098;2022-08-19T14:04:56;24.20;99.90
7159;DHT22;3621;52.374;13.098;2022-08-19T14:07:24;24.20;99.90
7159;DHT22;3621;52.374;13.098;2022-08-19T14:09:51;24.10;99.90
7159;DHT22;3621;52.374;13.098;2022-08-19T14:12:19;24.10;99.90
7159;DHT22;3621;52.374;13.098;2022-08-19T14:17:15;24.10;99.90
7159;DHT22;3621;52.374;13.098;2022-08-19T14:19:43;24.10;99.90
7159;DHT22;3621;52.374;13.098;2022-08-19T14:22:10;24.10;99.90
7159;DHT22;3621;52.374;13.098;2022-08-19T14:24:37;24.00;99.90
7159;DHT22;3621;52.374;13.098;2022-08-19T14:27:05;24.00;99.90
7159;DHT22;3621;52.374;13.098;2022-08-19T14:29:32;24.00;99.90
7159;DHT22;3621;52.374;13.098;2022-08-19T14:32:00;24.00;99.90
7159;DHT22;3621;52.374;13.098;2022-08-19T14:34:28;24.00;99.90
7159;DHT22;3621;52.374;13.098;2022-08-19T14:36:57;24.00;99.90
7159;DHT22;3621;52.374;13.098;2022-08-19T14:39:24;24.00;99.90
7159;DHT22;3621;52.374;13.098;2022-08-19T14:41:50;24.00;99.90
7159;DHT22;3621;52.374;13.098;2022-08-19T14:44:17;24.00;99.90
7159;DHT22;3621;52.374;13.098;2022-08-19T14:46:44;24.00;99.90
7159;DHT22;3621;52.374;13.098;2022-08-19T14:49:12;24.00;99.90
7159;DHT22;3621;52.374;13.098;2022-08-19T14:51:40;24.00;99.90
7159;DHT22;3621;52.374;13.098;2022-08-19T14:54:07;24.00;99.90
7159;DHT22;3621;52.374;13.098;2022-08-19T14:56:34;24.00;99.90
7159;DHT22;3621;52.374;13.098;2022-08-19T14:59:01;23.90;99.90
7159;DHT22;3621;52.374;13.098;2022-08-19T15:01:28;23.90;99.90
7159;DHT22;3621;52.374;13.098;2022-08-19T15:03:55;23.90;99.90
7159;DHT22;3621;52.374;13.098;2022-08-19T15:06:23;23.90;99.90
7159;DHT22;3621;52.374;13.098;2022-08-19T15:08:52;23.90;99.90
7159;DHT22;3621;52.374;13.098;2022-08-19T15:11:21;23.90;99.90
7159;DHT22;3621;52.374;13.098;2022-08-19T15:13:49;23.90;99.90
7159;DHT22;3621;52.374;13.098;2022-08-19T15:16:17;23.90;99.90
7159;DHT22;3621;52.374;13.098;2022-08-19T15:18:44;23.90;99.90
7159;DHT22;3621;52.374;13.098;2022-08-19T15:21:13;23.90;99.90
7159;DHT22;3621;52.374;13.098;2022-08-19T15:23:43;23.90;99.90
7159;DHT22;3621;52.374;13.098;2022-08-19T15:26:11;23.80;99.90
7159;DHT22;3621;52.374;13.098;2022-08-19T15:28:38;23.90;99.90
7159;DHT22;3621;52.374;13.098;2022-08-19T15:31:06;23.80;99.90
7159;DHT22;3621;52.374;13.098;2022-08-19T15:33:33;23.90;99.90
7159;DHT22;3621;52.374;13.098;2022-08-19T15:36:02;23.80;99.90
7159;DHT22;3621;52.374;13.098;2022-08-19T15:38:31;23.80;99.90
7159;DHT22;3621;52.374;13.098;2022-08-19T15:40:59;23.80;99.90
7159;DHT22;3621;52.374;13.098;2022-08-19T15:43:49;23.80;99.90
7159;DHT22;3621;52.374;13.098;2022-08-19T15:46:17;23.80;99.90
7159;DHT22;3621;52.374;13.098;2022-08-19T15:48:46;23.80;99.90
7159;DHT22;3621;52.374;13.098;2022-08-19T15:51:14;23.80;99.90
7159;DHT22;3621;52.374;13.098;2022-08-19T15:53:41;23.80;99.90
7159;DHT22;3621;52.374;13.098;2022-08-19T15:56:08;23.80;99.90
7159;DHT22;3621;52.374;13.098;2022-08-19T15:58:35;23.70;99.90